Time;durP1;ratioP1;P1;durP2;ratioP2;P2;SDS_P1;SDS_P2;PMS_P1;PMS_P2;Temp;Humidity;BMP_temperature;BMP_pressure;BME280_temperature;BME280_humidity;BME280_pressure;Samples;Min_cycle;Max_cycle;Signal;HPM_P1;HPM_P2
2024/01/11 00:14:42;;;;;;;20.00;14.10;;;;;;;19.91;48.23;101692.13;41403493;28;20050;-73
2024/01/11 00:34:43;;;;;;;20.55;14.73;;;;;;;19.89;48.12;101686.94;41393069;28;20085;-72
2024/01/11 00:54:44;;;;;;;20.35;14.13;;;;;;;19.88;47.73;101673.88;41389791;28;20042;-75
2024/01/11 01:14:44;;;;;;;21.95;15.65;;;;;;;19.93;47.86;101653.47;41395898;28;20049;-74
2024/01/11 01:34:44;;;;;;;23.10;16.25;;;;;;;19.99;47.50;101638.22;41396273;28;20144;-74
2024/01/11 01:54:47;;;;;;;22.42;16.75;;;;;;;19.93;47.64;101609.63;41377931;28;20152;-74
2024/01/11 02:14:47;;;;;;;25.90;17.35;;;;;;;20.01;47.22;101585.56;41387415;28;20080;-74
2024/01/11 02:34:48;;;;;;;25.35;17.88;;;;;;;20.05;46.79;101563.41;41230239;28;20043;-74
2024/01/11 02:54:49;;;;;;;25.10;17.70;;;;;;;19.95;46.97;101534.16;41296796;28;20073;-74
2024/01/11 03:14:49;;;;;;;26.58;18.05;;;;;;;19.99;46.91;101516.44;41202691;28;20129;-73
2024/01/11 03:34:50;;;;;;;26.13;17.98;;;;;;;19.99;46.94;101495.41;41395610;28;20493;-73
2024/01/11 03:54:50;;;;;;;26.60;18.38;;;;;;;19.98;46.54;101470.03;41391591;28;20066;-75
2024/01/11 04:14:51;;;;;;;26.27;18.38;;;;;;;19.99;46.72;101463.84;41386039;28;20049;-74
2024/01/11 04:34:52;;;;;;;27.25;19.52;;;;;;;19.94;46.55;101468.50;41374994;28;20100;-73
2024/01/11 04:54:54;;;;;;;28.30;18.58;;;;;;;19.98;46.43;101464.78;41403728;28;20065;-74
2024/01/11 05:14:55;;;;;;;27.95;19.08;;;;;;;20.15;45.56;101454.19;41414275;28;20042;-79
2024/01/11 05:34:55;;;;;;;32.10;18.63;;;;;;;20.69;45.70;101460.78;41380117;28;20509;-77
2024/01/11 05:54:58;;;;;;;30.33;19.27;;;;;;;20.80;45.87;101452.31;41290550;28;20129;-79
2024/01/11 06:15:00;;;;;;;48.25;25.60;;;;;;;20.15;43.50;101445.44;41402163;28;20050;-78
2024/01/11 06:35:01;;;;;;;38.80;23.88;;;;;;;20.73;41.45;101432.53;41414178;28;20053;-77
2024/01/11 06:55:02;;;;;;;39.00;22.60;;;;;;;20.96;41.63;101418.00;41434571;28;20078;-71
2024/01/11 07:15:04;;;;;;;32.33;20.00;;;;;;;21.15;41.70;101424.78;41424041;28;20405;-71
2024/01/11 07:35:06;;;;;;;30.27;18.48;;;;;;;21.27;42.07;101434.56;41405720;28;20057;-72
2024/01/11 07:55:07;;;;;;;25.77;17.08;;;;;;;21.33;42.10;101420.19;41389435;28;20045;-71
2024/01/11 08:15:12;;;;;;;24.85;15.00;;;;;;;21.52;41.76;101375.94;41347529;28;20137;-71
2024/01/11 08:35:12;;;;;;;21.08;14.43;;;;;;;21.58;42.12;101367.66;41262149;28;20042;-71
2024/01/11 08:55:13;;;;;;;19.02;12.95;;;;;;;21.56;42.40;101364.28;41394380;28;20050;-70
2024/01/11 09:15:14;;;;;;;16.55;12.27;;;;;;;21.68;42.53;101349.47;41436862;28;20105;-70
2024/01/11 09:35:16;;;;;;;14.05;10.38;;;;;;;21.75;41.87;101311.22;41419722;28;20053;-70
2024/01/11 09:55:17;;;;;;;12.95;8.60;;;;;;;21.94;41.84;101256.44;41322375;28;20050;-72
2024/01/11 10:15:18;;;;;;;12.13;8.75;;;;;;;22.05;41.64;101217.00;41249952;28;20453;-73
2024/01/11 10:35:18;;;;;;;11.05;7.93;;;;;;;22.17;41.43;101194.22;41273578;28;20049;-70
2024/01/11 10:55:19;;;;;;;10.25;7.70;;;;;;;22.28;40.85;101151.28;41398235;28;20054;-71
2024/01/11 11:15:21;;;;;;;13.00;6.65;;;;;;;22.59;40.98;101126.19;41410169;28;20046;-69
2024/01/11 11:35:25;;;;;;;8.23;6.30;;;;;;;22.67;40.89;101112.47;41378379;28;20405;-70
2024/01/11 11:55:25;;;;;;;9.90;6.43;;;;;;;22.70;41.88;101097.25;41392627;28;20049;-69
2024/01/11 12:15:29;;;;;;;8.15;6.22;;;;;;;22.88;41.32;101057.25;41389701;28;20061;-69
2024/01/11 12:35:32;;;;;;;9.45;6.22;;;;;;;22.99;40.88;101045.88;41391957;28;20046;-76
2024/01/11 12:55:34;;;;;;;9.05;5.85;;;;;;;23.01;41.21;101038.69;41435242;28;20053;-75
2024/01/11 13:15:36;;;;;;;9.32;6.15;;;;;;;22.57;41.84;101004.06;41427850;28;20133;-72
2024/01/11 13:35:37;;;;;;;8.80;6.30;;;;;;;22.52;41.40;100983.28;41431901;28;20049;-74
2024/01/11 13:55:37;;;;;;;10.48;5.78;;;;;;;22.21;41.64;100938.00;41348182;28;20047;-72
2024/01/11 14:15:39;;;;;;;9.57;5.75;;;;;;;22.04;42.21;100889.13;41365657;28;20145;-73
2024/01/11 14:35:39;;;;;;;8.15;4.95;;;;;;;21.98;42.23;100876.38;41462692;28;20031;-76
2024/01/11 14:55:40;;;;;;;9.85;5.18;;;;;;;21.82;42.09;100855.59;41322069;28;20812;-72
2024/01/11 15:15:41;;;;;;;6.35;4.78;;;;;;;21.67;42.42;100849.63;41393281;28;20114;-73
2024/01/11 15:35:41;;;;;;;11.93;5.60;;;;;;;21.16;39.66;100849.72;41335226;28;20045;-71
2024/01/11 15:55:41;;;;;;;9.43;5.30;;;;;;;21.45;41.35;100829.22;41319733;28;20058;-74
2024/01/11 16:15:42;;;;;;;10.95;7.35;;;;;;;20.24;32.08;100841.88;41345708;28;20506;-76
2024/01/11 16:35:46;;;;;;;8.00;5.80;;;;;;;21.05;39.09;100826.78;41360673;28;20422;-78
2024/01/11 16:55:48;;;;;;;9.05;6.40;;;;;;;20.89;40.53;100798.88;41368294;28;20089;-74
2024/01/11 17:15:49;;;;;;;10.07;6.38;;;;;;;20.92;41.35;100779.41;41407455;28;20053;-72
2024/01/11 17:35:50;;;;;;;9.52;7.03;;;;;;;20.82;42.58;100744.16;41404167;28;21788;-77
2024/01/11 17:55:51;;;;;;;12.48;8.15;;;;;;;20.84;42.88;100737.00;41441475;28;20057;-75
2024/01/11 18:15:52;;;;;;;11.57;8.40;;;;;;;20.78;42.91;100707.50;41423580;28;20171;-78
2024/01/11 18:35:52;;;;;;;12.45;9.70;;;;;;;20.69;42.90;100697.63;41483641;28;20065;-78
2024/01/11 18:55:56;;;;;;;13.32;9.00;;;;;;;20.69;43.89;100686.25;41496630;28;20064;-81
2024/01/11 19:15:59;;;;;;;21.67;9.98;;;;;;;20.91;44.95;100682.94;41426872;28;20052;-74
2024/01/11 19:35:59;;;;;;;18.17;11.32;;;;;;;21.00;47.86;100671.75;41407184;28;20089;-75
2024/01/11 19:56:00;;;;;;;21.95;12.13;;;;;;;20.69;46.54;100684.47;41420038;28;20097;-74
2024/01/11 20:16:01;;;;;;;19.83;12.68;;;;;;;20.62;45.85;100705.09;41375423;28;20057;-70
2024/01/11 20:36:03;;;;;;;21.55;12.55;;;;;;;20.34;44.62;100710.59;41418164;28;20109;-76
2024/01/11 20:56:15;;;;;;;18.52;11.95;;;;;;;20.36;44.68;100711.31;41433177;28;20076;-77
2024/01/11 21:16:17;;;;;;;18.23;10.68;;;;;;;20.31;46.16;100748.44;41474408;28;20050;-74
2024/01/11 21:36:25;;;;;;;15.00;10.70;;;;;;;20.25;46.72;100740.97;41394873;28;20046;-75
2024/01/11 21:56:25;;;;;;;14.38;10.65;;;;;;;20.26;47.09;100754.03;41346294;28;20119;-74
2024/01/11 22:16:26;;;;;;;11.68;8.90;;;;;;;20.15;47.12;100760.03;41285028;28;20465;-73
2024/01/11 22:36:28;;;;;;;12.73;8.85;;;;;;;20.14;46.96;100787.25;41396295;28;20579;-74
2024/01/11 22:56:29;;;;;;;13.35;9.25;;;;;;;20.16;47.17;100805.53;41417539;28;20385;-73
2024/01/11 23:16:30;;;;;;;12.45;8.77;;;;;;;20.25;46.79;100843.53;41405652;28;20418;-76
2024/01/11 23:36:32;;;;;;;12.40;8.25;;;;;;;20.21;47.30;100863.09;41401275;28;20094;-75
2024/01/11 23:56:34;;;;;;;10.45;7.90;;;;;;;20.13;46.97;100860.97;41401210;28;20050;-75
